sensor_id;sensor_type;location;lat;lon;timestamp;P1;durP1;ratioP1;P2;durP2;ratioP2
29314;SDS011;16320;53.954;9.506;2024-01-06T00:01:31;11.18;;;5.60;;
29314;SDS011;16320;53.954;9.506;2024-01-06T00:03:58;10.95;;;5.60;;
29314;SDS011;16320;53.954;9.506;2024-01-06T00:06:27;9.77;;;5.65;;
29314;SDS011;16320;53.954;9.506;2024-01-06T00:08:57;9.63;;;5.47;;
29314;SDS011;16320;53.954;9.506;2024-01-06T00:11:26;10.38;;;5.63;;
29314;SDS011;16320;53.954;9.506;2024-01-06T00:13:55;7.45;;;4.80;;
29314;SDS011;16320;53.954;9.506;2024-01-06T00:16:23;8.88;;;5.28;;
29314;SDS011;16320;53.954;9.506;2024-01-06T00:18:54;7.90;;;4.95;;
29314;SDS011;16320;53.954;9.506;2024-01-06T00:21:24;9.73;;;5.63;;
29314;SDS011;16320;53.954;9.506;2024-01-06T00:23:54;10.38;;;5.32;;
29314;SDS011;16320;53.954;9.506;2024-01-06T00:26:22;11.55;;;5.88;;
29314;SDS011;16320;53.954;9.506;2024-01-06T00:28:51;7.47;;;5.22;;
29314;SDS011;16320;53.954;9.506;2024-01-06T00:31:20;10.60;;;5.50;;
29314;SDS011;16320;53.954;9.506;2024-01-06T00:33:49;9.27;;;5.53;;
29314;SDS011;16320;53.954;9.506;2024-01-06T00:36:17;10.35;;;6.07;;
29314;SDS011;16320;53.954;9.506;2024-01-06T00:38:46;11.27;;;5.43;;
29314;SDS011;16320;53.954;9.506;2024-01-06T00:41:15;8.23;;;5.50;;
29314;SDS011;16320;53.954;9.506;2024-01-06T00:43:43;9.57;;;5.78;;
29314;SDS011;16320;53.954;9.506;2024-01-06T00:46:11;8.93;;;5.90;;
29314;SDS011;16320;53.954;9.506;2024-01-06T00:48:39;10.77;;;6.45;;
29314;SDS011;16320;53.954;9.506;2024-01-06T00:51:07;11.15;;;5.85;;
29314;SDS011;16320;53.954;9.506;2024-01-06T00:53:37;10.20;;;5.97;;
29314;SDS011;16320;53.954;9.506;2024-01-06T00:56:05;11.15;;;6.55;;
29314;SDS011;16320;53.954;9.506;2024-01-06T00:58:33;10.20;;;6.38;;
29314;SDS011;16320;53.954;9.506;2024-01-06T01:01:01;15.23;;;7.10;;
29314;SDS011;16320;53.954;9.506;2024-01-06T01:03:30;10.38;;;6.75;;
29314;SDS011;16320;53.954;9.506;2024-01-06T01:05:58;12.88;;;6.45;;
29314;SDS011;16320;53.954;9.506;2024-01-06T01:08:28;10.02;;;6.82;;
29314;SDS011;16320;53.954;9.506;2024-01-06T01:10:58;11.43;;;6.45;;
29314;SDS011;16320;53.954;9.506;2024-01-06T01:13:26;11.80;;;7.32;;
29314;SDS011;16320;53.954;9.506;2024-01-06T01:15:55;13.50;;;7.65;;
29314;SDS011;16320;53.954;9.506;2024-01-06T01:18:23;12.57;;;7.18;;
29314;SDS011;16320;53.954;9.506;2024-01-06T01:20:52;13.35;;;8.00;;
29314;SDS011;16320;53.954;9.506;2024-01-06T01:23:22;13.27;;;8.05;;
29314;SDS011;16320;53.954;9.506;2024-01-06T01:25:50;14.30;;;7.65;;
29314;SDS011;16320;53.954;9.506;2024-01-06T01:28:19;12.25;;;7.38;;
29314;SDS011;16320;53.954;9.506;2024-01-06T01:30:47;13.85;;;8.35;;
29314;SDS011;16320;53.954;9.506;2024-01-06T01:33:15;13.05;;;7.68;;
29314;SDS011;16320;53.954;9.506;2024-01-06T01:35:43;13.23;;;7.80;;
29314;SDS011;16320;53.954;9.506;2024-01-06T01:38:12;14.93;;;8.93;;
29314;SDS011;16320;53.954;9.506;2024-01-06T01:40:40;13.93;;;7.97;;
29314;SDS011;16320;53.954;9.506;2024-01-06T01:43:18;15.23;;;9.18;;
29314;SDS011;16320;53.954;9.506;2024-01-06T01:45:48;12.80;;;9.02;;
29314;SDS011;16320;53.954;9.506;2024-01-06T01:48:21;13.98;;;9.02;;
29314;SDS011;16320;53.954;9.506;2024-01-06T01:50:51;15.23;;;9.30;;
29314;SDS011;16320;53.954;9.506;2024-01-06T01:53:21;17.05;;;8.85;;
29314;SDS011;16320;53.954;9.506;2024-01-06T01:55:53;14.65;;;8.85;;
29314;SDS011;16320;53.954;9.506;2024-01-06T01:58:22;15.82;;;8.85;;
29314;SDS011;16320;53.954;9.506;2024-01-06T02:00:50;11.88;;;8.60;;
29314;SDS011;16320;53.954;9.506;2024-01-06T02:03:19;19.00;;;9.18;;
29314;SDS011;16320;53.954;9.506;2024-01-06T02:05:49;18.33;;;9.85;;
29314;SDS011;16320;53.954;9.506;2024-01-06T02:08:20;21.10;;;10.07;;
29314;SDS011;16320;53.954;9.506;2024-01-06T02:10:48;14.98;;;9.10;;
29314;SDS011;16320;53.954;9.506;2024-01-06T02:13:16;14.32;;;9.10;;
29314;SDS011;16320;53.954;9.506;2024-01-06T02:15:45;19.15;;;9.25;;
29314;SDS011;16320;53.954;9.506;2024-01-06T02:18:14;16.77;;;9.38;;
29314;SDS011;16320;53.954;9.506;2024-01-06T02:20:43;16.67;;;9.55;;
29314;SDS011;16320;53.954;9.506;2024-01-06T02:23:11;16.17;;;9.80;;
29314;SDS011;16320;53.954;9.506;2024-01-06T02:25:40;15.82;;;9.73;;
29314;SDS011;16320;53.954;9.506;2024-01-06T02:28:09;13.32;;;8.27;;
29314;SDS011;16320;53.954;9.506;2024-01-06T02:30:36;15.32;;;9.63;;
29314;SDS011;16320;53.954;9.506;2024-01-06T02:33:05;19.42;;;10.18;;
29314;SDS011;16320;53.954;9.506;2024-01-06T02:35:34;15.45;;;9.90;;
29314;SDS011;16320;53.954;9.506;2024-01-06T02:38:03;16.55;;;9.40;;
29314;SDS011;16320;53.954;9.506;2024-01-06T02:40:31;16.75;;;8.63;;
29314;SDS011;16320;53.954;9.506;2024-01-06T02:42:59;16.15;;;9.48;;
29314;SDS011;16320;53.954;9.506;2024-01-06T02:45:27;16.05;;;9.95;;
29314;SDS011;16320;53.954;9.506;2024-01-06T02:47:57;18.08;;;9.90;;
29314;SDS011;16320;53.954;9.506;2024-01-06T02:50:25;16.42;;;9.90;;
29314;SDS011;16320;53.954;9.506;2024-01-06T02:52:53;15.95;;;9.75;;
29314;SDS011;16320;53.954;9.506;2024-01-06T02:55:22;17.02;;;9.73;;
29314;SDS011;16320;53.954;9.506;2024-01-06T02:57:50;17.75;;;9.85;;
29314;SDS011;16320;53.954;9.506;2024-01-06T03:00:19;16.75;;;10.82;;
29314;SDS011;16320;53.954;9.506;2024-01-06T03:02:48;19.95;;;10.15;;
29314;SDS011;16320;53.954;9.506;2024-01-06T03:05:16;16.80;;;9.93;;
29314;SDS011;16320;53.954;9.506;2024-01-06T03:07:45;16.23;;;9.32;;
29314;SDS011;16320;53.954;9.506;2024-01-06T03:10:14;16.58;;;10.57;;
29314;SDS011;16320;53.954;9.506;2024-01-06T03:12:43;15.80;;;10.20;;
29314;SDS011;16320;53.954;9.506;2024-01-06T03:15:11;16.85;;;10.38;;
29314;SDS011;16320;53.954;9.506;2024-01-06T03:17:40;15.93;;;10.15;;
29314;SDS011;16320;53.954;9.506;2024-01-06T03:20:08;19.13;;;9.95;;
29314;SDS011;16320;53.954;9.506;2024-01-06T03:22:38;16.10;;;10.15;;
29314;SDS011;16320;53.954;9.506;2024-01-06T03:25:09;21.02;;;10.73;;
29314;SDS011;16320;53.954;9.506;2024-01-06T03:27:37;15.95;;;9.73;;
29314;SDS011;16320;53.954;9.506;2024-01-06T03:30:06;15.05;;;9.38;;
29314;SDS011;16320;53.954;9.506;2024-01-06T03:35:06;18.27;;;9.48;;
29314;SDS011;16320;53.954;9.506;2024-01-06T03:37:35;15.27;;;10.02;;
29314;SDS011;16320;53.954;9.506;2024-01-06T03:40:03;16.30;;;10.13;;
29314;SDS011;16320;53.954;9.506;2024-01-06T03:42:32;18.58;;;11.00;;
29314;SDS011;16320;53.954;9.506;2024-01-06T03:45:00;19.88;;;10.15;;
29314;SDS011;16320;53.954;9.506;2024-01-06T03:47:29;21.95;;;11.35;;
29314;SDS011;16320;53.954;9.506;2024-01-06T03:49:57;19.83;;;10.40;;
29314;SDS011;16320;53.954;9.506;2024-01-06T03:52:25;21.23;;;11.13;;
29314;SDS011;16320;53.954;9.506;2024-01-06T03:54:53;19.33;;;10.93;;
29314;SDS011;16320;53.954;9.506;2024-01-06T03:57:22;22.35;;;11.98;;
29314;SDS011;16320;53.954;9.506;2024-01-06T03:59:50;25.98;;;12.52;;
29314;SDS011;16320;53.954;9.506;2024-01-06T04:02:18;21.02;;;12.23;;
29314;SDS011;16320;53.954;9.506;2024-01-06T04:04:46;21.55;;;12.07;;
29314;SDS011;16320;53.954;9.506;2024-01-06T04:07:15;29.55;;;13.23;;
29314;SDS011;16320;53.954;9.506;2024-01-06T04:09:43;21.88;;;13.13;;
29314;SDS011;16320;53.954;9.506;2024-01-06T04:12:11;23.88;;;13.65;;
29314;SDS011;16320;53.954;9.506;2024-01-06T04:14:39;20.73;;;12.10;;
29314;SDS011;16320;53.954;9.506;2024-01-06T04:17:07;22.83;;;13.07;;
29314;SDS011;16320;53.954;9.506;2024-01-06T04:19:36;23.02;;;12.75;;
29314;SDS011;16320;53.954;9.506;2024-01-06T04:22:04;24.90;;;12.93;;
29314;SDS011;16320;53.954;9.506;2024-01-06T04:24:32;21.60;;;12.30;;
29314;SDS011;16320;53.954;9.506;2024-01-06T04:27:04;23.00;;;13.60;;
29314;SDS011;16320;53.954;9.506;2024-01-06T04:29:32;25.45;;;12.40;;
29314;SDS011;16320;53.954;9.506;2024-01-06T04:32:00;24.15;;;13.02;;
29314;SDS011;16320;53.954;9.506;2024-01-06T04:34:28;23.75;;;12.25;;
29314;SDS011;16320;53.954;9.506;2024-01-06T04:36:57;24.63;;;13.82;;
29314;SDS011;16320;53.954;9.506;2024-01-06T04:39:25;21.33;;;12.13;;
29314;SDS011;16320;53.954;9.506;2024-01-06T04:41:53;22.85;;;12.38;;
29314;SDS011;16320;53.954;9.506;2024-01-06T04:44:21;25.70;;;12.48;;
29314;SDS011;16320;53.954;9.506;2024-01-06T04:46:51;26.77;;;12.55;;
29314;SDS011;16320;53.954;9.506;2024-01-06T04:49:19;22.90;;;12.85;;
29314;SDS011;16320;53.954;9.506;2024-01-06T04:51:47;22.98;;;13.68;;
29314;SDS011;16320;53.954;9.506;2024-01-06T04:54:17;23.92;;;12.82;;
29314;SDS011;16320;53.954;9.506;2024-01-06T04:56:45;23.15;;;13.07;;
29314;SDS011;16320;53.954;9.506;2024-01-06T04:59:14;24.20;;;13.55;;
29314;SDS011;16320;53.954;9.506;2024-01-06T05:01:43;22.17;;;12.85;;
29314;SDS011;16320;53.954;9.506;2024-01-06T05:04:11;25.60;;;14.63;;
29314;SDS011;16320;53.954;9.506;2024-01-06T05:06:39;25.27;;;13.65;;
29314;SDS011;16320;53.954;9.506;2024-01-06T05:09:08;23.42;;;12.40;;
29314;SDS011;16320;53.954;9.506;2024-01-06T05:11:36;22.85;;;12.55;;
29314;SDS011;16320;53.954;9.506;2024-01-06T05:14:04;24.55;;;13.13;;
29314;SDS011;16320;53.954;9.506;2024-01-06T05:16:32;22.17;;;13.32;;
29314;SDS011;16320;53.954;9.506;2024-01-06T05:19:00;21.48;;;12.70;;
29314;SDS011;16320;53.954;9.506;2024-01-06T05:21:29;22.67;;;13.02;;
29314;SDS011;16320;53.954;9.506;2024-01-06T05:23:59;24.02;;;13.90;;
29314;SDS011;16320;53.954;9.506;2024-01-06T05:26:27;20.13;;;11.68;;
29314;SDS011;16320;53.954;9.506;2024-01-06T05:28:57;29.60;;;14.30;;
29314;SDS011;16320;53.954;9.506;2024-01-06T05:31:25;23.55;;;12.52;;
29314;SDS011;16320;53.954;9.506;2024-01-06T05:33:53;20.55;;;11.45;;
29314;SDS011;16320;53.954;9.506;2024-01-06T05:36:23;26.48;;;13.80;;
29314;SDS011;16320;53.954;9.506;2024-01-06T05:38:51;26.95;;;12.85;;
29314;SDS011;16320;53.954;9.506;2024-01-06T05:41:22;21.73;;;12.48;;
29314;SDS011;16320;53.954;9.506;2024-01-06T05:43:53;21.80;;;11.32;;
29314;SDS011;16320;53.954;9.506;2024-01-06T05:46:22;21.80;;;12.82;;
29314;SDS011;16320;53.954;9.506;2024-01-06T05:48:53;22.48;;;12.55;;
29314;SDS011;16320;53.954;9.506;2024-01-06T05:51:22;20.83;;;12.90;;
29314;SDS011;16320;53.954;9.506;2024-01-06T05:53:51;27.15;;;13.20;;
29314;SDS011;16320;53.954;9.506;2024-01-06T05:56:22;22.58;;;11.98;;
29314;SDS011;16320;53.954;9.506;2024-01-06T05:58:56;22.33;;;12.05;;
29314;SDS011;16320;53.954;9.506;2024-01-06T06:01:25;24.75;;;13.43;;
29314;SDS011;16320;53.954;9.506;2024-01-06T06:03:54;21.67;;;12.90;;
29314;SDS011;16320;53.954;9.506;2024-01-06T06:06:29;21.98;;;12.73;;
29314;SDS011;16320;53.954;9.506;2024-01-06T06:08:59;20.75;;;12.80;;
29314;SDS011;16320;53.954;9.506;2024-01-06T06:11:33;24.65;;;12.95;;
29314;SDS011;16320;53.954;9.506;2024-01-06T06:14:01;22.42;;;11.85;;
29314;SDS011;16320;53.954;9.506;2024-01-06T06:16:29;22.70;;;12.38;;
29314;SDS011;16320;53.954;9.506;2024-01-06T06:18:57;22.85;;;12.38;;
29314;SDS011;16320;53.954;9.506;2024-01-06T06:21:26;24.08;;;13.18;;
29314;SDS011;16320;53.954;9.506;2024-01-06T06:23:55;23.83;;;12.88;;
29314;SDS011;16320;53.954;9.506;2024-01-06T06:26:23;22.58;;;11.88;;
29314;SDS011;16320;53.954;9.506;2024-01-06T06:28:53;24.77;;;12.73;;
29314;SDS011;16320;53.954;9.506;2024-01-06T06:31:21;20.85;;;11.60;;
29314;SDS011;16320;53.954;9.506;2024-01-06T06:33:49;26.05;;;12.88;;
29314;SDS011;16320;53.954;9.506;2024-01-06T06:36:17;20.25;;;12.35;;
29314;SDS011;16320;53.954;9.506;2024-01-06T06:38:46;24.85;;;12.85;;
29314;SDS011;16320;53.954;9.506;2024-01-06T06:41:14;20.02;;;11.38;;
29314;SDS011;16320;53.954;9.506;2024-01-06T06:43:42;22.60;;;12.73;;
29314;SDS011;16320;53.954;9.506;2024-01-06T06:46:10;22.00;;;11.52;;
29314;SDS011;16320;53.954;9.506;2024-01-06T06:48:40;23.23;;;12.70;;
29314;SDS011;16320;53.954;9.506;2024-01-06T06:51:08;22.20;;;11.77;;
29314;SDS011;16320;53.954;9.506;2024-01-06T06:53:40;28.97;;;12.77;;
29314;SDS011;16320;53.954;9.506;2024-01-06T06:56:08;23.33;;;11.82;;
29314;SDS011;16320;53.954;9.506;2024-01-06T06:58:36;23.35;;;11.02;;
29314;SDS011;16320;53.954;9.506;2024-01-06T07:01:05;18.33;;;11.25;;
29314;SDS011;16320;53.954;9.506;2024-01-06T07:03:36;19.33;;;11.52;;
29314;SDS011;16320;53.954;9.506;2024-01-06T07:06:04;24.40;;;11.52;;
29314;SDS011;16320;53.954;9.506;2024-01-06T07:08:32;22.30;;;11.55;;
29314;SDS011;16320;53.954;9.506;2024-01-06T07:11:00;19.92;;;11.13;;
29314;SDS011;16320;53.954;9.506;2024-01-06T07:13:28;20.75;;;10.65;;
29314;SDS011;16320;53.954;9.506;2024-01-06T07:15:56;17.80;;;10.02;;
29314;SDS011;16320;53.954;9.506;2024-01-06T07:18:42;19.42;;;11.20;;
29314;SDS011;16320;53.954;9.506;2024-01-06T07:21:12;20.38;;;10.82;;
29314;SDS011;16320;53.954;9.506;2024-01-06T07:23:40;18.80;;;10.57;;
29314;SDS011;16320;53.954;9.506;2024-01-06T07:26:10;24.10;;;11.13;;
29314;SDS011;16320;53.954;9.506;2024-01-06T07:28:38;17.38;;;9.52;;
29314;SDS011;16320;53.954;9.506;2024-01-06T07:31:06;18.08;;;9.68;;
29314;SDS011;16320;53.954;9.506;2024-01-06T07:33:34;18.60;;;9.13;;
29314;SDS011;16320;53.954;9.506;2024-01-06T07:36:04;18.88;;;9.77;;
29314;SDS011;16320;53.954;9.506;2024-01-06T07:38:34;18.02;;;8.68;;
29314;SDS011;16320;53.954;9.506;2024-01-06T07:41:02;16.65;;;9.93;;
29314;SDS011;16320;53.954;9.506;2024-01-06T07:43:31;17.10;;;9.20;;
29314;SDS011;16320;53.954;9.506;2024-01-06T07:45:59;16.48;;;9.35;;
29314;SDS011;16320;53.954;9.506;2024-01-06T07:48:29;18.40;;;9.40;;
29314;SDS011;16320;53.954;9.506;2024-01-06T07:51:00;16.52;;;8.98;;
29314;SDS011;16320;53.954;9.506;2024-01-06T07:53:29;16.83;;;9.07;;
29314;SDS011;16320;53.954;9.506;2024-01-06T07:55:57;15.77;;;8.73;;
29314;SDS011;16320;53.954;9.506;2024-01-06T07:58:25;15.10;;;9.10;;
29314;SDS011;16320;53.954;9.506;2024-01-06T08:00:54;15.00;;;8.15;;
29314;SDS011;16320;53.954;9.506;2024-01-06T08:03:22;20.58;;;10.15;;
29314;SDS011;16320;53.954;9.506;2024-01-06T08:05:54;16.00;;;8.80;;
29314;SDS011;16320;53.954;9.506;2024-01-06T08:08:22;13.90;;;9.00;;
29314;SDS011;16320;53.954;9.506;2024-01-06T08:10:50;22.58;;;9.95;;
29314;SDS011;16320;53.954;9.506;2024-01-06T08:13:18;16.48;;;9.13;;
29314;SDS011;16320;53.954;9.506;2024-01-06T08:15:46;17.23;;;8.73;;
29314;SDS011;16320;53.954;9.506;2024-01-06T08:18:17;15.98;;;8.20;;
29314;SDS011;16320;53.954;9.506;2024-01-06T08:20:48;17.15;;;9.75;;
29314;SDS011;16320;53.954;9.506;2024-01-06T08:23:17;17.45;;;9.27;;
29314;SDS011;16320;53.954;9.506;2024-01-06T08:25:47;19.95;;;9.57;;
29314;SDS011;16320;53.954;9.506;2024-01-06T08:28:16;16.70;;;8.45;;
29314;SDS011;16320;53.954;9.506;2024-01-06T08:30:44;17.73;;;10.00;;
29314;SDS011;16320;53.954;9.506;2024-01-06T08:33:13;16.15;;;9.15;;
29314;SDS011;16320;53.954;9.506;2024-01-06T08:35:41;17.58;;;9.32;;
29314;SDS011;16320;53.954;9.506;2024-01-06T08:38:09;13.55;;;7.97;;
29314;SDS011;16320;53.954;9.506;2024-01-06T08:40:37;16.55;;;7.97;;
29314;SDS011;16320;53.954;9.506;2024-01-06T08:43:05;15.05;;;7.35;;
29314;SDS011;16320;53.954;9.506;2024-01-06T08:45:33;14.68;;;8.55;;
29314;SDS011;16320;53.954;9.506;2024-01-06T08:48:01;13.88;;;7.82;;
29314;SDS011;16320;53.954;9.506;2024-01-06T08:50:30;19.15;;;7.63;;
29314;SDS011;16320;53.954;9.506;2024-01-06T08:52:59;15.77;;;7.80;;
29314;SDS011;16320;53.954;9.506;2024-01-06T08:55:27;15.15;;;7.90;;
29314;SDS011;16320;53.954;9.506;2024-01-06T08:57:55;16.80;;;8.65;;
29314;SDS011;16320;53.954;9.506;2024-01-06T09:00:23;14.88;;;8.15;;
29314;SDS011;16320;53.954;9.506;2024-01-06T09:02:51;16.30;;;8.88;;
29314;SDS011;16320;53.954;9.506;2024-01-06T09:05:19;16.48;;;8.73;;
29314;SDS011;16320;53.954;9.506;2024-01-06T09:07:47;17.80;;;9.07;;
29314;SDS011;16320;53.954;9.506;2024-01-06T09:10:20;15.40;;;7.43;;
29314;SDS011;16320;53.954;9.506;2024-01-06T09:12:48;13.70;;;8.45;;
29314;SDS011;16320;53.954;9.506;2024-01-06T09:15:18;18.67;;;8.85;;
29314;SDS011;16320;53.954;9.506;2024-01-06T09:17:46;17.17;;;8.73;;
29314;SDS011;16320;53.954;9.506;2024-01-06T09:20:14;12.20;;;7.13;;
29314;SDS011;16320;53.954;9.506;2024-01-06T09:22:43;16.92;;;7.80;;
29314;SDS011;16320;53.954;9.506;2024-01-06T09:25:12;13.43;;;7.43;;
29314;SDS011;16320;53.954;9.506;2024-01-06T09:27:40;13.23;;;7.72;;
29314;SDS011;16320;53.954;9.506;2024-01-06T09:30:08;15.40;;;7.40;;
29314;SDS011;16320;53.954;9.506;2024-01-06T09:32:37;11.27;;;7.22;;
29314;SDS011;16320;53.954;9.506;2024-01-06T09:35:06;12.02;;;7.18;;
29314;SDS011;16320;53.954;9.506;2024-01-06T09:37:35;11.95;;;6.70;;
29314;SDS011;16320;53.954;9.506;2024-01-06T09:40:03;9.93;;;6.13;;
29314;SDS011;16320;53.954;9.506;2024-01-06T09:42:32;14.82;;;7.18;;
29314;SDS011;16320;53.954;9.506;2024-01-06T09:45:01;14.73;;;7.07;;
29314;SDS011;16320;53.954;9.506;2024-01-06T09:47:29;12.60;;;7.20;;
29314;SDS011;16320;53.954;9.506;2024-01-06T09:50:03;11.00;;;6.55;;
29314;SDS011;16320;53.954;9.506;2024-01-06T09:52:40;12.45;;;6.45;;
29314;SDS011;16320;53.954;9.506;2024-01-06T09:55:10;13.55;;;6.78;;
29314;SDS011;16320;53.954;9.506;2024-01-06T09:57:41;13.07;;;6.30;;
29314;SDS011;16320;53.954;9.506;2024-01-06T10:00:13;11.55;;;6.63;;
29314;SDS011;16320;53.954;9.506;2024-01-06T10:02:43;12.13;;;6.25;;
29314;SDS011;16320;53.954;9.506;2024-01-06T10:05:12;18.27;;;6.88;;
29314;SDS011;16320;53.954;9.506;2024-01-06T10:07:43;10.75;;;5.85;;
29314;SDS011;16320;53.954;9.506;2024-01-06T10:10:13;12.13;;;5.75;;
29314;SDS011;16320;53.954;9.506;2024-01-06T10:12:42;10.25;;;6.15;;
29314;SDS011;16320;53.954;9.506;2024-01-06T10:15:11;9.27;;;5.60;;
29314;SDS011;16320;53.954;9.506;2024-01-06T10:17:40;12.00;;;5.05;;
29314;SDS011;16320;53.954;9.506;2024-01-06T10:20:11;10.50;;;5.20;;
29314;SDS011;16320;53.954;9.506;2024-01-06T10:22:41;8.90;;;4.65;;
29314;SDS011;16320;53.954;9.506;2024-01-06T10:25:11;14.77;;;5.40;;
29314;SDS011;16320;53.954;9.506;2024-01-06T10:27:40;8.85;;;4.82;;
29314;SDS011;16320;53.954;9.506;2024-01-06T10:30:11;12.73;;;5.28;;
29314;SDS011;16320;53.954;9.506;2024-01-06T10:32:44;11.18;;;5.13;;
29314;SDS011;16320;53.954;9.506;2024-01-06T10:35:12;7.57;;;4.63;;
29314;SDS011;16320;53.954;9.506;2024-01-06T10:37:41;10.48;;;4.32;;
29314;SDS011;16320;53.954;9.506;2024-01-06T10:40:10;9.50;;;4.60;;
29314;SDS011;16320;53.954;9.506;2024-01-06T10:42:42;10.27;;;4.30;;
29314;SDS011;16320;53.954;9.506;2024-01-06T10:45:13;8.65;;;4.60;;
29314;SDS011;16320;53.954;9.506;2024-01-06T10:47:42;8.82;;;4.50;;
29314;SDS011;16320;53.954;9.506;2024-01-06T10:50:11;9.73;;;4.10;;
29314;SDS011;16320;53.954;9.506;2024-01-06T10:52:40;6.75;;;4.13;;
29314;SDS011;16320;53.954;9.506;2024-01-06T10:55:10;8.52;;;4.05;;
29314;SDS011;16320;53.954;9.506;2024-01-06T10:57:40;7.95;;;3.90;;
29314;SDS011;16320;53.954;9.506;2024-01-06T11:00:12;9.40;;;4.43;;
29314;SDS011;16320;53.954;9.506;2024-01-06T11:02:40;7.60;;;4.40;;
29314;SDS011;16320;53.954;9.506;2024-01-06T11:05:09;11.07;;;5.22;;
29314;SDS011;16320;53.954;9.506;2024-01-06T11:07:38;8.80;;;4.68;;
29314;SDS011;16320;53.954;9.506;2024-01-06T11:10:11;12.88;;;4.82;;
29314;SDS011;16320;53.954;9.506;2024-01-06T11:12:44;11.27;;;5.43;;
29314;SDS011;16320;53.954;9.506;2024-01-06T11:15:38;8.77;;;4.70;;
29314;SDS011;16320;53.954;9.506;2024-01-06T11:26:56;9.35;;;5.15;;
29314;SDS011;16320;53.954;9.506;2024-01-06T11:29:24;10.88;;;4.80;;
29314;SDS011;16320;53.954;9.506;2024-01-06T11:35:08;10.75;;;4.90;;
29314;SDS011;16320;53.954;9.506;2024-01-06T11:40:09;8.85;;;5.18;;
29314;SDS011;16320;53.954;9.506;2024-01-06T11:42:44;9.13;;;4.80;;
29314;SDS011;16320;53.954;9.506;2024-01-06T11:45:14;14.65;;;5.18;;
29314;SDS011;16320;53.954;9.506;2024-01-06T11:47:47;11.75;;;4.93;;
29314;SDS011;16320;53.954;9.506;2024-01-06T11:50:16;9.40;;;4.72;;
29314;SDS011;16320;53.954;9.506;2024-01-06T11:52:44;9.57;;;4.15;;
29314;SDS011;16320;53.954;9.506;2024-01-06T11:55:13;10.27;;;4.85;;
29314;SDS011;16320;53.954;9.506;2024-01-06T11:57:45;9.80;;;5.35;;
29314;SDS011;16320;53.954;9.506;2024-01-06T12:00:13;7.63;;;4.93;;
29314;SDS011;16320;53.954;9.506;2024-01-06T12:02:42;8.73;;;4.72;;
29314;SDS011;16320;53.954;9.506;2024-01-06T12:05:14;13.52;;;4.97;;
29314;SDS011;16320;53.954;9.506;2024-01-06T12:07:54;10.13;;;4.50;;
29314;SDS011;16320;53.954;9.506;2024-01-06T12:10:26;6.72;;;3.83;;
29314;SDS011;16320;53.954;9.506;2024-01-06T12:12:59;10.70;;;4.50;;
29314;SDS011;16320;53.954;9.506;2024-01-06T12:15:30;9.70;;;4.45;;
29314;SDS011;16320;53.954;9.506;2024-01-06T12:18:02;10.20;;;4.43;;
29314;SDS011;16320;53.954;9.506;2024-01-06T12:20:31;8.80;;;4.60;;
29314;SDS011;16320;53.954;9.506;2024-01-06T12:22:59;9.80;;;4.20;;
29314;SDS011;16320;53.954;9.506;2024-01-06T12:25:29;8.52;;;4.65;;
29314;SDS011;16320;53.954;9.506;2024-01-06T12:28:05;9.13;;;5.00;;
29314;SDS011;16320;53.954;9.506;2024-01-06T12:30:33;9.90;;;4.93;;
29314;SDS011;16320;53.954;9.506;2024-01-06T12:33:02;7.50;;;5.07;;
29314;SDS011;16320;53.954;9.506;2024-01-06T12:35:32;10.25;;;4.90;;
29314;SDS011;16320;53.954;9.506;2024-01-06T12:38:02;10.70;;;5.45;;
29314;SDS011;16320;53.954;9.506;2024-01-06T12:40:35;12.90;;;5.43;;
29314;SDS011;16320;53.954;9.506;2024-01-06T12:43:07;9.45;;;5.10;;
29314;SDS011;16320;53.954;9.506;2024-01-06T12:45:36;10.45;;;5.35;;
29314;SDS011;16320;53.954;9.506;2024-01-06T12:48:04;10.32;;;5.38;;
29314;SDS011;16320;53.954;9.506;2024-01-06T12:50:33;10.73;;;5.63;;
29314;SDS011;16320;53.954;9.506;2024-01-06T12:53:01;10.02;;;5.25;;
29314;SDS011;16320;53.954;9.506;2024-01-06T12:55:33;9.82;;;5.90;;
29314;SDS011;16320;53.954;9.506;2024-01-06T12:58:01;9.88;;;5.78;;
29314;SDS011;16320;53.954;9.506;2024-01-06T13:00:30;11.82;;;6.20;;
29314;SDS011;16320;53.954;9.506;2024-01-06T13:03:02;10.93;;;6.57;;
29314;SDS011;16320;53.954;9.506;2024-01-06T13:05:31;11.30;;;5.95;;
29314;SDS011;16320;53.954;9.506;2024-01-06T13:07:59;9.13;;;5.78;;
29314;SDS011;16320;53.954;9.506;2024-01-06T13:10:28;11.65;;;5.50;;
29314;SDS011;16320;53.954;9.506;2024-01-06T13:12:58;10.75;;;6.25;;
29314;SDS011;16320;53.954;9.506;2024-01-06T13:15:26;11.32;;;6.50;;
29314;SDS011;16320;53.954;9.506;2024-01-06T13:17:54;9.85;;;6.28;;
29314;SDS011;16320;53.954;9.506;2024-01-06T13:20:23;14.55;;;5.97;;
29314;SDS011;16320;53.954;9.506;2024-01-06T13:22:51;9.18;;;6.03;;
29314;SDS011;16320;53.954;9.506;2024-01-06T13:25:20;11.43;;;6.72;;
29314;SDS011;16320;53.954;9.506;2024-01-06T13:27:48;9.57;;;6.03;;
29314;SDS011;16320;53.954;9.506;2024-01-06T13:30:16;12.23;;;5.80;;
29314;SDS011;16320;53.954;9.506;2024-01-06T13:32:46;10.02;;;5.43;;
29314;SDS011;16320;53.954;9.506;2024-01-06T13:35:17;11.75;;;5.32;;
29314;SDS011;16320;53.954;9.506;2024-01-06T13:37:45;9.60;;;4.63;;
29314;SDS011;16320;53.954;9.506;2024-01-06T13:40:14;8.07;;;4.43;;
29314;SDS011;16320;53.954;9.506;2024-01-06T13:42:49;10.95;;;5.13;;
29314;SDS011;16320;53.954;9.506;2024-01-06T13:47:47;8.48;;;4.05;;
29314;SDS011;16320;53.954;9.506;2024-01-06T13:50:16;7.18;;;3.92;;
29314;SDS011;16320;53.954;9.506;2024-01-06T13:52:46;7.72;;;4.45;;
29314;SDS011;16320;53.954;9.506;2024-01-06T13:55:15;6.90;;;3.80;;
29314;SDS011;16320;53.954;9.506;2024-01-06T13:57:43;9.57;;;3.85;;
29314;SDS011;16320;53.954;9.506;2024-01-06T14:00:11;6.85;;;4.28;;
29314;SDS011;16320;53.954;9.506;2024-01-06T14:02:46;6.80;;;4.22;;
29314;SDS011;16320;53.954;9.506;2024-01-06T14:05:14;9.55;;;3.72;;
29314;SDS011;16320;53.954;9.506;2024-01-06T14:07:43;8.00;;;3.83;;
29314;SDS011;16320;53.954;9.506;2024-01-06T14:10:13;8.27;;;4.07;;
29314;SDS011;16320;53.954;9.506;2024-01-06T14:12:42;6.97;;;4.07;;
29314;SDS011;16320;53.954;9.506;2024-01-06T14:15:10;9.23;;;4.72;;
29314;SDS011;16320;53.954;9.506;2024-01-06T14:17:38;12.90;;;4.70;;
29314;SDS011;16320;53.954;9.506;2024-01-06T14:20:09;6.70;;;4.38;;
29314;SDS011;16320;53.954;9.506;2024-01-06T14:22:39;8.65;;;3.90;;
29314;SDS011;16320;53.954;9.506;2024-01-06T14:25:07;9.18;;;5.25;;
29314;SDS011;16320;53.954;9.506;2024-01-06T14:27:35;11.45;;;5.13;;
29314;SDS011;16320;53.954;9.506;2024-01-06T14:30:03;12.32;;;5.18;;
29314;SDS011;16320;53.954;9.506;2024-01-06T14:32:35;8.27;;;4.95;;
29314;SDS011;16320;53.954;9.506;2024-01-06T14:35:05;9.95;;;5.50;;
29314;SDS011;16320;53.954;9.506;2024-01-06T14:40:08;10.25;;;5.70;;
29314;SDS011;16320;53.954;9.506;2024-01-06T14:42:39;6.88;;;5.30;;
29314;SDS011;16320;53.954;9.506;2024-01-06T14:45:15;9.25;;;5.75;;
29314;SDS011;16320;53.954;9.506;2024-01-06T14:47:45;10.80;;;6.68;;
29314;SDS011;16320;53.954;9.506;2024-01-06T14:50:16;13.52;;;6.63;;
29314;SDS011;16320;53.954;9.506;2024-01-06T14:52:45;10.93;;;6.47;;
29314;SDS011;16320;53.954;9.506;2024-01-06T14:55:13;14.82;;;6.80;;
29314;SDS011;16320;53.954;9.506;2024-01-06T14:57:42;13.23;;;5.90;;
29314;SDS011;16320;53.954;9.506;2024-01-06T15:00:11;14.23;;;6.40;;
29314;SDS011;16320;53.954;9.506;2024-01-06T15:02:43;18.58;;;7.15;;
29314;SDS011;16320;53.954;9.506;2024-01-06T15:05:13;17.77;;;7.03;;
29314;SDS011;16320;53.954;9.506;2024-01-06T15:07:42;12.73;;;6.32;;